sensor_id;sensor_type;location;lat;lon;timestamp;temperature;humidity
71142;DHT22;58808;59.366;17.970;2023-10-31T00:02:08;8.30;99.90
71142;DHT22;58808;59.366;17.970;2023-10-31T00:04:34;8.40;99.90
71142;DHT22;58808;59.366;17.970;2023-10-31T00:06:59;8.40;99.90
71142;DHT22;58808;59.366;17.970;2023-10-31T00:09:25;8.40;99.90
71142;DHT22;58808;59.366;17.970;2023-10-31T00:11:51;8.40;99.90
71142;DHT22;58808;59.366;17.970;2023-10-31T00:14:17;8.40;99.90
71142;DHT22;58808;59.366;17.970;2023-10-31T00:16:42;8.40;99.90
71142;DHT22;58808;59.366;17.970;2023-10-31T00:19:08;8.40;99.90
71142;DHT22;58808;59.366;17.970;2023-10-31T00:21:34;8.40;99.90
71142;DHT22;58808;59.366;17.970;2023-10-31T00:23:59;8.40;99.90
71142;DHT22;58808;59.366;17.970;2023-10-31T00:26:25;8.40;99.90
71142;DHT22;58808;59.366;17.970;2023-10-31T00:28:51;8.40;99.90
71142;DHT22;58808;59.366;17.970;2023-10-31T00:31:17;8.40;99.90
71142;DHT22;58808;59.366;17.970;2023-10-31T00:33:42;8.40;99.90
71142;DHT22;58808;59.366;17.970;2023-10-31T00:36:08;8.40;99.90
71142;DHT22;58808;59.366;17.970;2023-10-31T00:38:34;8.40;99.90
71142;DHT22;58808;59.366;17.970;2023-10-31T00:41:00;8.40;99.90
71142;DHT22;58808;59.366;17.970;2023-10-31T00:43:25;8.40;99.90
71142;DHT22;58808;59.366;17.970;2023-10-31T00:45:51;8.40;99.90
71142;DHT22;58808;59.366;17.970;2023-10-31T00:48:17;8.40;99.90
71142;DHT22;58808;59.366;17.970;2023-10-31T00:50:43;8.40;99.90
71142;DHT22;58808;59.366;17.970;2023-10-31T00:53:09;8.40;99.90
71142;DHT22;58808;59.366;17.970;2023-10-31T00:55:34;8.40;99.90
71142;DHT22;58808;59.366;17.970;2023-10-31T00:58:00;8.40;99.90
71142;DHT22;58808;59.366;17.970;2023-10-31T01:00:26;8.40;99.90
71142;DHT22;58808;59.366;17.970;2023-10-31T01:02:51;8.50;99.90
71142;DHT22;58808;59.366;17.970;2023-10-31T01:05:17;8.50;99.90
71142;DHT22;58808;59.366;17.970;2023-10-31T01:07:43;8.50;99.90
71142;DHT22;58808;59.366;17.970;2023-10-31T01:10:09;8.50;99.90
71142;DHT22;58808;59.366;17.970;2023-10-31T01:12:35;8.50;99.90
71142;DHT22;58808;59.366;17.970;2023-10-31T01:15:00;8.50;99.90
71142;DHT22;58808;59.366;17.970;2023-10-31T01:17:26;8.40;99.90
71142;DHT22;58808;59.366;17.970;2023-10-31T01:19:52;8.50;99.90
71142;DHT22;58808;59.366;17.970;2023-10-31T01:22:18;8.40;99.90
71142;DHT22;58808;59.366;17.970;2023-10-31T01:24:43;8.40;99.90
71142;DHT22;58808;59.366;17.970;2023-10-31T01:27:09;8.50;99.90
71142;DHT22;58808;59.366;17.970;2023-10-31T01:29:35;8.50;99.90
71142;DHT22;58808;59.366;17.970;2023-10-31T01:32:00;8.50;99.90
71142;DHT22;58808;59.366;17.970;2023-10-31T01:34:26;8.50;99.90
71142;DHT22;58808;59.366;17.970;2023-10-31T01:36:52;8.50;99.90
71142;DHT22;58808;59.366;17.970;2023-10-31T01:39:17;8.50;99.90
71142;DHT22;58808;59.366;17.970;2023-10-31T01:41:43;8.50;99.90
71142;DHT22;58808;59.366;17.970;2023-10-31T01:44:12;8.50;99.90
71142;DHT22;58808;59.366;17.970;2023-10-31T01:46:38;8.50;99.90
71142;DHT22;58808;59.366;17.970;2023-10-31T01:49:03;8.50;99.90
71142;DHT22;58808;59.366;17.970;2023-10-31T01:51:29;8.50;99.90
71142;DHT22;58808;59.366;17.970;2023-10-31T01:53:55;8.60;99.90
71142;DHT22;58808;59.366;17.970;2023-10-31T01:56:22;8.50;99.90
71142;DHT22;58808;59.366;17.970;2023-10-31T01:58:49;8.50;99.90
71142;DHT22;58808;59.366;17.970;2023-10-31T02:01:15;8.50;99.90
71142;DHT22;58808;59.366;17.970;2023-10-31T02:03:41;8.50;99.90
71142;DHT22;58808;59.366;17.970;2023-10-31T02:06:07;8.60;99.90
71142;DHT22;58808;59.366;17.970;2023-10-31T02:08:33;8.50;99.90
71142;DHT22;58808;59.366;17.970;2023-10-31T02:11:00;8.50;99.90
71142;DHT22;58808;59.366;17.970;2023-10-31T02:13:25;8.50;99.90
71142;DHT22;58808;59.366;17.970;2023-10-31T02:15:51;8.50;99.90
71142;DHT22;58808;59.366;17.970;2023-10-31T02:18:17;8.50;99.90
71142;DHT22;58808;59.366;17.970;2023-10-31T02:20:43;8.50;99.90
71142;DHT22;58808;59.366;17.970;2023-10-31T02:23:09;8.50;99.90
71142;DHT22;58808;59.366;17.970;2023-10-31T02:25:35;8.50;99.90
71142;DHT22;58808;59.366;17.970;2023-10-31T02:28:01;8.50;99.90
71142;DHT22;58808;59.366;17.970;2023-10-31T02:30:27;8.50;99.90
71142;DHT22;58808;59.366;17.970;2023-10-31T02:32:52;8.50;99.90
71142;DHT22;58808;59.366;17.970;2023-10-31T02:35:18;8.50;99.90
71142;DHT22;58808;59.366;17.970;2023-10-31T02:37:45;8.50;99.90
71142;DHT22;58808;59.366;17.970;2023-10-31T02:40:11;8.50;99.90
71142;DHT22;58808;59.366;17.970;2023-10-31T02:42:37;8.50;99.90
71142;DHT22;58808;59.366;17.970;2023-10-31T02:45:03;8.50;99.90
71142;DHT22;58808;59.366;17.970;2023-10-31T02:47:30;8.50;99.90
71142;DHT22;58808;59.366;17.970;2023-10-31T02:49:55;8.50;99.90
71142;DHT22;58808;59.366;17.970;2023-10-31T02:52:21;8.50;99.90
71142;DHT22;58808;59.366;17.970;2023-10-31T02:54:47;8.50;99.90
71142;DHT22;58808;59.366;17.970;2023-10-31T02:57:13;8.50;99.90
71142;DHT22;58808;59.366;17.970;2023-10-31T02:59:39;8.50;99.90
71142;DHT22;58808;59.366;17.970;2023-10-31T03:02:04;8.50;99.90
71142;DHT22;58808;59.366;17.970;2023-10-31T03:04:30;8.50;99.90
71142;DHT22;58808;59.366;17.970;2023-10-31T03:06:56;8.50;99.90
71142;DHT22;58808;59.366;17.970;2023-10-31T03:09:22;8.50;99.90
71142;DHT22;58808;59.366;17.970;2023-10-31T03:11:47;8.50;99.90
71142;DHT22;58808;59.366;17.970;2023-10-31T03:14:13;8.50;99.90
71142;DHT22;58808;59.366;17.970;2023-10-31T03:16:39;8.50;99.90
71142;DHT22;58808;59.366;17.970;2023-10-31T03:19:05;8.50;99.90
71142;DHT22;58808;59.366;17.970;2023-10-31T03:21:30;8.50;99.90
71142;DHT22;58808;59.366;17.970;2023-10-31T03:23:56;8.50;99.90
71142;DHT22;58808;59.366;17.970;2023-10-31T03:26:22;8.50;99.90
71142;DHT22;58808;59.366;17.970;2023-10-31T03:28:48;8.50;99.90
71142;DHT22;58808;59.366;17.970;2023-10-31T03:31:14;8.50;99.90
71142;DHT22;58808;59.366;17.970;2023-10-31T03:33:40;8.50;99.90
71142;DHT22;58808;59.366;17.970;2023-10-31T03:36:07;8.50;99.90
71142;DHT22;58808;59.366;17.970;2023-10-31T03:38:37;8.50;99.90
71142;DHT22;58808;59.366;17.970;2023-10-31T03:41:03;8.50;99.90
71142;DHT22;58808;59.366;17.970;2023-10-31T03:43:28;8.50;99.90
71142;DHT22;58808;59.366;17.970;2023-10-31T03:45:54;8.60;99.90
71142;DHT22;58808;59.366;17.970;2023-10-31T03:48:20;8.60;99.90
71142;DHT22;58808;59.366;17.970;2023-10-31T03:50:46;8.60;99.90
71142;DHT22;58808;59.366;17.970;2023-10-31T03:53:12;8.60;99.90
71142;DHT22;58808;59.366;17.970;2023-10-31T03:55:38;8.50;99.90
71142;DHT22;58808;59.366;17.970;2023-10-31T03:58:04;8.50;99.90
71142;DHT22;58808;59.366;17.970;2023-10-31T04:00:31;8.60;99.90
71142;DHT22;58808;59.366;17.970;2023-10-31T04:02:56;8.50;99.90
71142;DHT22;58808;59.366;17.970;2023-10-31T04:05:22;8.50;99.90
71142;DHT22;58808;59.366;17.970;2023-10-31T04:07:49;8.50;99.90
71142;DHT22;58808;59.366;17.970;2023-10-31T04:10:15;8.60;99.90
71142;DHT22;58808;59.366;17.970;2023-10-31T04:12:41;8.50;99.90
71142;DHT22;58808;59.366;17.970;2023-10-31T04:15:08;8.50;99.90
71142;DHT22;58808;59.366;17.970;2023-10-31T04:17:33;8.60;99.90
71142;DHT22;58808;59.366;17.970;2023-10-31T04:19:59;8.50;99.90
71142;DHT22;58808;59.366;17.970;2023-10-31T04:22:25;8.50;99.90
71142;DHT22;58808;59.366;17.970;2023-10-31T04:24:51;8.50;99.90
71142;DHT22;58808;59.366;17.970;2023-10-31T04:27:16;8.60;99.90
71142;DHT22;58808;59.366;17.970;2023-10-31T04:29:42;8.50;99.90
71142;DHT22;58808;59.366;17.970;2023-10-31T04:32:08;8.50;99.90
71142;DHT22;58808;59.366;17.970;2023-10-31T04:34:33;8.50;99.90
71142;DHT22;58808;59.366;17.970;2023-10-31T04:36:59;8.50;99.90
71142;DHT22;58808;59.366;17.970;2023-10-31T04:39:25;8.50;99.90
71142;DHT22;58808;59.366;17.970;2023-10-31T04:41:50;8.50;99.90
71142;DHT22;58808;59.366;17.970;2023-10-31T04:44:16;8.50;99.90
71142;DHT22;58808;59.366;17.970;2023-10-31T04:46:42;8.50;99.90
71142;DHT22;58808;59.366;17.970;2023-10-31T04:49:08;8.50;99.90
71142;DHT22;58808;59.366;17.970;2023-10-31T04:51:35;8.50;99.90
71142;DHT22;58808;59.366;17.970;2023-10-31T04:54:02;8.50;99.90
71142;DHT22;58808;59.366;17.970;2023-10-31T04:56:27;8.50;99.90
71142;DHT22;58808;59.366;17.970;2023-10-31T04:58:53;8.50;99.90
71142;DHT22;58808;59.366;17.970;2023-10-31T05:01:19;8.50;99.90
71142;DHT22;58808;59.366;17.970;2023-10-31T05:03:45;8.50;99.90
71142;DHT22;58808;59.366;17.970;2023-10-31T05:06:10;8.50;99.90
71142;DHT22;58808;59.366;17.970;2023-10-31T05:08:36;8.50;99.90
71142;DHT22;58808;59.366;17.970;2023-10-31T05:11:02;8.50;99.90
71142;DHT22;58808;59.366;17.970;2023-10-31T05:13:28;8.50;99.90
71142;DHT22;58808;59.366;17.970;2023-10-31T05:15:54;8.50;99.90
71142;DHT22;58808;59.366;17.970;2023-10-31T05:18:19;8.50;99.90
71142;DHT22;58808;59.366;17.970;2023-10-31T05:20:45;8.50;99.90
71142;DHT22;58808;59.366;17.970;2023-10-31T05:23:11;8.50;99.90
71142;DHT22;58808;59.366;17.970;2023-10-31T05:25:37;8.40;99.90
71142;DHT22;58808;59.366;17.970;2023-10-31T05:28:03;8.40;99.90
71142;DHT22;58808;59.366;17.970;2023-10-31T05:30:29;8.40;99.90
71142;DHT22;58808;59.366;17.970;2023-10-31T05:32:55;8.50;99.90
71142;DHT22;58808;59.366;17.970;2023-10-31T05:35:21;8.40;99.90
71142;DHT22;58808;59.366;17.970;2023-10-31T05:37:47;8.40;99.90
71142;DHT22;58808;59.366;17.970;2023-10-31T05:40:14;8.40;99.90
71142;DHT22;58808;59.366;17.970;2023-10-31T05:42:40;8.40;99.90
71142;DHT22;58808;59.366;17.970;2023-10-31T05:45:06;8.40;99.90
71142;DHT22;58808;59.366;17.970;2023-10-31T05:47:32;8.40;99.90
71142;DHT22;58808;59.366;17.970;2023-10-31T05:49:58;8.40;99.90
71142;DHT22;58808;59.366;17.970;2023-10-31T05:52:28;8.40;99.90
71142;DHT22;58808;59.366;17.970;2023-10-31T05:54:55;8.40;99.90
71142;DHT22;58808;59.366;17.970;2023-10-31T05:57:21;8.30;99.90
71142;DHT22;58808;59.366;17.970;2023-10-31T05:59:47;8.30;99.90
71142;DHT22;58808;59.366;17.970;2023-10-31T06:02:14;8.30;99.90
71142;DHT22;58808;59.366;17.970;2023-10-31T06:04:39;8.30;99.90
71142;DHT22;58808;59.366;17.970;2023-10-31T06:07:06;8.30;99.90
71142;DHT22;58808;59.366;17.970;2023-10-31T06:09:31;8.30;99.90
71142;DHT22;58808;59.366;17.970;2023-10-31T06:12:01;8.30;99.90
71142;DHT22;58808;59.366;17.970;2023-10-31T06:14:27;8.30;99.90
71142;DHT22;58808;59.366;17.970;2023-10-31T06:16:53;8.30;99.90
71142;DHT22;58808;59.366;17.970;2023-10-31T06:19:20;8.20;99.90
71142;DHT22;58808;59.366;17.970;2023-10-31T06:21:46;8.20;99.90
71142;DHT22;58808;59.366;17.970;2023-10-31T06:24:11;8.20;99.90
71142;DHT22;58808;59.366;17.970;2023-10-31T06:26:37;8.30;99.90
71142;DHT22;58808;59.366;17.970;2023-10-31T06:29:04;8.20;99.90
71142;DHT22;58808;59.366;17.970;2023-10-31T06:31:29;8.20;99.90
71142;DHT22;58808;59.366;17.970;2023-10-31T06:33:55;8.20;99.90
71142;DHT22;58808;59.366;17.970;2023-10-31T06:36:21;8.20;99.90
71142;DHT22;58808;59.366;17.970;2023-10-31T06:38:47;8.20;99.90
71142;DHT22;58808;59.366;17.970;2023-10-31T06:41:13;8.20;99.90
71142;DHT22;58808;59.366;17.970;2023-10-31T06:43:39;8.20;99.90
71142;DHT22;58808;59.366;17.970;2023-10-31T06:46:04;8.20;99.90
71142;DHT22;58808;59.366;17.970;2023-10-31T06:48:30;8.20;99.90
71142;DHT22;58808;59.366;17.970;2023-10-31T06:50:56;8.20;99.90
71142;DHT22;58808;59.366;17.970;2023-10-31T06:53:22;8.20;99.90
71142;DHT22;58808;59.366;17.970;2023-10-31T06:55:47;8.30;99.90
71142;DHT22;58808;59.366;17.970;2023-10-31T06:58:14;8.20;99.90
71142;DHT22;58808;59.366;17.970;2023-10-31T07:00:39;8.20;99.90
71142;DHT22;58808;59.366;17.970;2023-10-31T07:03:05;8.20;99.90
71142;DHT22;58808;59.366;17.970;2023-10-31T07:05:37;8.20;99.90
71142;DHT22;58808;59.366;17.970;2023-10-31T07:08:04;8.20;99.90
71142;DHT22;58808;59.366;17.970;2023-10-31T07:10:30;8.20;99.90
71142;DHT22;58808;59.366;17.970;2023-10-31T07:12:56;8.20;99.90
71142;DHT22;58808;59.366;17.970;2023-10-31T07:15:24;8.20;99.90
71142;DHT22;58808;59.366;17.970;2023-10-31T07:17:50;8.20;99.90
71142;DHT22;58808;59.366;17.970;2023-10-31T07:20:15;8.20;99.90
71142;DHT22;58808;59.366;17.970;2023-10-31T07:22:41;8.10;99.90
71142;DHT22;58808;59.366;17.970;2023-10-31T07:25:07;8.10;99.90
71142;DHT22;58808;59.366;17.970;2023-10-31T07:27:33;8.10;99.90
71142;DHT22;58808;59.366;17.970;2023-10-31T07:29:58;8.10;99.90
71142;DHT22;58808;59.366;17.970;2023-10-31T07:32:25;8.10;99.90
71142;DHT22;58808;59.366;17.970;2023-10-31T07:34:51;8.10;99.90
71142;DHT22;58808;59.366;17.970;2023-10-31T07:37:17;8.10;99.90
71142;DHT22;58808;59.366;17.970;2023-10-31T07:39:43;8.00;99.90
71142;DHT22;58808;59.366;17.970;2023-10-31T07:42:08;7.90;99.90
71142;DHT22;58808;59.366;17.970;2023-10-31T07:44:34;7.80;99.90
71142;DHT22;58808;59.366;17.970;2023-10-31T07:47:00;7.80;99.90
71142;DHT22;58808;59.366;17.970;2023-10-31T07:49:25;7.80;99.90
71142;DHT22;58808;59.366;17.970;2023-10-31T07:51:51;7.80;99.90
71142;DHT22;58808;59.366;17.970;2023-10-31T07:54:17;7.80;99.90
71142;DHT22;58808;59.366;17.970;2023-10-31T07:56:42;7.80;99.90
71142;DHT22;58808;59.366;17.970;2023-10-31T07:59:08;7.70;99.90
71142;DHT22;58808;59.366;17.970;2023-10-31T08:01:34;7.70;99.90
71142;DHT22;58808;59.366;17.970;2023-10-31T08:04:00;7.70;99.90
71142;DHT22;58808;59.366;17.970;2023-10-31T08:06:26;7.70;99.90
71142;DHT22;58808;59.366;17.970;2023-10-31T08:08:52;7.70;99.90
71142;DHT22;58808;59.366;17.970;2023-10-31T08:11:18;7.70;99.90
71142;DHT22;58808;59.366;17.970;2023-10-31T08:13:43;7.70;99.90
71142;DHT22;58808;59.366;17.970;2023-10-31T08:16:09;7.70;99.90
71142;DHT22;58808;59.366;17.970;2023-10-31T08:18:35;7.70;99.90
71142;DHT22;58808;59.366;17.970;2023-10-31T08:21:01;7.70;99.90
71142;DHT22;58808;59.366;17.970;2023-10-31T08:23:29;7.70;99.90
71142;DHT22;58808;59.366;17.970;2023-10-31T08:25:55;7.70;99.90
71142;DHT22;58808;59.366;17.970;2023-10-31T08:28:21;7.60;99.90
71142;DHT22;58808;59.366;17.970;2023-10-31T08:30:46;7.60;99.90
71142;DHT22;58808;59.366;17.970;2023-10-31T08:33:13;7.60;99.90
71142;DHT22;58808;59.366;17.970;2023-10-31T08:35:39;7.60;99.90
71142;DHT22;58808;59.366;17.970;2023-10-31T08:38:05;7.60;99.90
71142;DHT22;58808;59.366;17.970;2023-10-31T08:40:31;7.60;99.90
71142;DHT22;58808;59.366;17.970;2023-10-31T08:42:56;7.60;99.90
71142;DHT22;58808;59.366;17.970;2023-10-31T08:45:22;7.50;99.90
71142;DHT22;58808;59.366;17.970;2023-10-31T08:47:48;7.50;99.90
71142;DHT22;58808;59.366;17.970;2023-10-31T08:50:14;7.60;99.90
71142;DHT22;58808;59.366;17.970;2023-10-31T08:52:40;7.50;99.90
71142;DHT22;58808;59.366;17.970;2023-10-31T08:55:06;7.50;99.90
71142;DHT22;58808;59.366;17.970;2023-10-31T08:57:32;7.50;99.90
71142;DHT22;58808;59.366;17.970;2023-10-31T08:59:59;7.50;99.90
71142;DHT22;58808;59.366;17.970;2023-10-31T09:02:25;7.50;99.90
71142;DHT22;58808;59.366;17.970;2023-10-31T09:04:51;7.50;99.90
71142;DHT22;58808;59.366;17.970;2023-10-31T09:07:17;7.50;99.90
71142;DHT22;58808;59.366;17.970;2023-10-31T09:09:42;7.50;99.90
71142;DHT22;58808;59.366;17.970;2023-10-31T09:12:08;7.50;99.90
71142;DHT22;58808;59.366;17.970;2023-10-31T09:14:34;7.50;99.90
71142;DHT22;58808;59.366;17.970;2023-10-31T09:17:01;7.50;99.90
71142;DHT22;58808;59.366;17.970;2023-10-31T09:19:26;7.50;99.90
71142;DHT22;58808;59.366;17.970;2023-10-31T09:21:52;7.50;99.90
71142;DHT22;58808;59.366;17.970;2023-10-31T09:24:18;7.50;99.90
71142;DHT22;58808;59.366;17.970;2023-10-31T09:26:43;7.40;99.90
71142;DHT22;58808;59.366;17.970;2023-10-31T09:29:12;7.40;99.90
71142;DHT22;58808;59.366;17.970;2023-10-31T09:31:38;7.40;99.90
71142;DHT22;58808;59.366;17.970;2023-10-31T09:34:04;7.40;99.90
71142;DHT22;58808;59.366;17.970;2023-10-31T09:36:33;7.40;99.90
71142;DHT22;58808;59.366;17.970;2023-10-31T09:39:02;7.30;99.90
71142;DHT22;58808;59.366;17.970;2023-10-31T09:41:28;7.40;99.90
71142;DHT22;58808;59.366;17.970;2023-10-31T09:43:54;7.40;99.90
71142;DHT22;58808;59.366;17.970;2023-10-31T09:46:21;7.40;99.90
71142;DHT22;58808;59.366;17.970;2023-10-31T09:48:48;7.40;99.90
71142;DHT22;58808;59.366;17.970;2023-10-31T09:51:14;7.40;99.90
71142;DHT22;58808;59.366;17.970;2023-10-31T09:53:45;7.40;99.90
71142;DHT22;58808;59.366;17.970;2023-10-31T09:56:12;7.40;99.90
71142;DHT22;58808;59.366;17.970;2023-10-31T09:58:38;7.40;99.90
71142;DHT22;58808;59.366;17.970;2023-10-31T10:01:05;7.40;99.90
71142;DHT22;58808;59.366;17.970;2023-10-31T10:03:31;7.30;99.90
71142;DHT22;58808;59.366;17.970;2023-10-31T10:05:57;7.30;99.90
71142;DHT22;58808;59.366;17.970;2023-10-31T10:08:23;7.20;99.90
71142;DHT22;58808;59.366;17.970;2023-10-31T10:10:50;7.20;99.90
71142;DHT22;58808;59.366;17.970;2023-10-31T10:13:18;7.20;99.90
71142;DHT22;58808;59.366;17.970;2023-10-31T10:15:47;7.10;99.90
71142;DHT22;58808;59.366;17.970;2023-10-31T10:21:00;7.10;99.90
71142;DHT22;58808;59.366;17.970;2023-10-31T10:23:27;7.10;99.90
71142;DHT22;58808;59.366;17.970;2023-10-31T10:25:54;7.10;99.90
71142;DHT22;58808;59.366;17.970;2023-10-31T10:28:20;7.10;99.90
71142;DHT22;58808;59.366;17.970;2023-10-31T10:30:49;7.10;99.90
71142;DHT22;58808;59.366;17.970;2023-10-31T10:33:15;7.10;99.90
71142;DHT22;58808;59.366;17.970;2023-10-31T10:35:42;7.00;99.90
71142;DHT22;58808;59.366;17.970;2023-10-31T10:38:11;7.00;99.90
71142;DHT22;58808;59.366;17.970;2023-10-31T10:40:41;7.00;99.90
71142;DHT22;58808;59.366;17.970;2023-10-31T10:43:18;7.00;99.90
71142;DHT22;58808;59.366;17.970;2023-10-31T10:45:46;7.00;99.90
71142;DHT22;58808;59.366;17.970;2023-10-31T10:48:16;7.00;99.90
71142;DHT22;58808;59.366;17.970;2023-10-31T10:50:43;7.00;99.90
71142;DHT22;58808;59.366;17.970;2023-10-31T10:53:21;7.00;99.90
71142;DHT22;58808;59.366;17.970;2023-10-31T10:55:51;7.00;99.90
71142;DHT22;58808;59.366;17.970;2023-10-31T10:58:40;7.00;99.90
71142;DHT22;58808;59.366;17.970;2023-10-31T11:01:08;7.00;99.90
71142;DHT22;58808;59.366;17.970;2023-10-31T11:03:35;7.00;99.90
71142;DHT22;58808;59.366;17.970;2023-10-31T11:06:01;7.00;99.90
71142;DHT22;58808;59.366;17.970;2023-10-31T11:08:28;7.00;99.90
71142;DHT22;58808;59.366;17.970;2023-10-31T11:10:53;7.10;99.90
71142;DHT22;58808;59.366;17.970;2023-10-31T11:13:22;7.10;99.90
71142;DHT22;58808;59.366;17.970;2023-10-31T11:15:51;7.10;99.90
71142;DHT22;58808;59.366;17.970;2023-10-31T11:18:19;7.00;99.90
71142;DHT22;58808;59.366;17.970;2023-10-31T11:20:45;7.00;99.90
71142;DHT22;58808;59.366;17.970;2023-10-31T11:23:11;7.00;99.90
71142;DHT22;58808;59.366;17.970;2023-10-31T11:25:42;7.00;99.90
71142;DHT22;58808;59.366;17.970;2023-10-31T11:28:13;7.00;99.90
71142;DHT22;58808;59.366;17.970;2023-10-31T11:30:40;6.90;99.90
71142;DHT22;58808;59.366;17.970;2023-10-31T11:33:06;6.90;99.90
71142;DHT22;58808;59.366;17.970;2023-10-31T11:35:39;6.90;99.90
71142;DHT22;58808;59.366;17.970;2023-10-31T11:38:06;6.90;99.90
71142;DHT22;58808;59.366;17.970;2023-10-31T11:40:32;6.90;99.90
71142;DHT22;58808;59.366;17.970;2023-10-31T11:43:03;6.90;99.90
71142;DHT22;58808;59.366;17.970;2023-10-31T11:45:40;6.90;99.90
71142;DHT22;58808;59.366;17.970;2023-10-31T11:48:08;6.80;99.90
71142;DHT22;58808;59.366;17.970;2023-10-31T11:50:36;6.70;99.90
71142;DHT22;58808;59.366;17.970;2023-10-31T11:53:12;6.70;99.90
71142;DHT22;58808;59.366;17.970;2023-10-31T11:55:45;6.70;99.90
71142;DHT22;58808;59.366;17.970;2023-10-31T11:58:23;6.70;99.90
71142;DHT22;58808;59.366;17.970;2023-10-31T12:01:00;6.70;99.90
71142;DHT22;58808;59.366;17.970;2023-10-31T12:03:26;6.70;99.90
71142;DHT22;58808;59.366;17.970;2023-10-31T12:05:59;6.70;99.90
71142;DHT22;58808;59.366;17.970;2023-10-31T12:11:12;6.70;99.90
71142;DHT22;58808;59.366;17.970;2023-10-31T12:13:42;6.70;99.90
71142;DHT22;58808;59.366;17.970;2023-10-31T12:16:16;6.70;99.90
71142;DHT22;58808;59.366;17.970;2023-10-31T12:18:42;6.60;99.90
71142;DHT22;58808;59.366;17.970;2023-10-31T12:21:08;6.70;99.90
71142;DHT22;58808;59.366;17.970;2023-10-31T12:23:36;6.70;99.90
71142;DHT22;58808;59.366;17.970;2023-10-31T12:26:02;6.60;99.90
71142;DHT22;58808;59.366;17.970;2023-10-31T12:28:27;6.70;99.90
71142;DHT22;58808;59.366;17.970;2023-10-31T12:30:54;6.70;99.90
71142;DHT22;58808;59.366;17.970;2023-10-31T12:33:22;6.60;99.90
71142;DHT22;58808;59.366;17.970;2023-10-31T12:35:52;6.60;99.90
71142;DHT22;58808;59.366;17.970;2023-10-31T12:38:19;6.60;99.90
71142;DHT22;58808;59.366;17.970;2023-10-31T12:40:45;6.60;99.90
71142;DHT22;58808;59.366;17.970;2023-10-31T12:43:11;6.60;99.90
71142;DHT22;58808;59.366;17.970;2023-10-31T12:45:37;6.60;99.90
71142;DHT22;58808;59.366;17.970;2023-10-31T12:48:04;6.50;99.90
71142;DHT22;58808;59.366;17.970;2023-10-31T12:50:31;6.60;99.90
71142;DHT22;58808;59.366;17.970;2023-10-31T12:52:58;6.60;99.90
71142;DHT22;58808;59.366;17.970;2023-10-31T12:55:27;6.60;99.90
71142;DHT22;58808;59.366;17.970;2023-10-31T12:57:53;6.60;99.90
71142;DHT22;58808;59.366;17.970;2023-10-31T13:00:20;6.60;99.90
71142;DHT22;58808;59.366;17.970;2023-10-31T13:02:59;6.50;99.90
71142;DHT22;58808;59.366;17.970;2023-10-31T13:05:26;6.50;99.90
71142;DHT22;58808;59.366;17.970;2023-10-31T13:07:53;6.50;99.90
71142;DHT22;58808;59.366;17.970;2023-10-31T13:10:24;6.50;99.90
71142;DHT22;58808;59.366;17.970;2023-10-31T13:12:51;6.60;99.90
71142;DHT22;58808;59.366;17.970;2023-10-31T13:15:19;6.60;99.90
71142;DHT22;58808;59.366;17.970;2023-10-31T13:17:45;6.50;99.90
71142;DHT22;58808;59.366;17.970;2023-10-31T13:20:12;6.50;99.90
71142;DHT22;58808;59.366;17.970;2023-10-31T13:22:39;6.50;99.90
71142;DHT22;58808;59.366;17.970;2023-10-31T13:25:07;6.50;99.90
71142;DHT22;58808;59.366;17.970;2023-10-31T13:27:35;6.50;99.90
71142;DHT22;58808;59.366;17.970;2023-10-31T13:30:02;6.50;99.90
71142;DHT22;58808;59.366;17.970;2023-10-31T13:32:28;6.50;99.90
71142;DHT22;58808;59.366;17.970;2023-10-31T13:34:54;6.50;99.90
71142;DHT22;58808;59.366;17.970;2023-10-31T13:37:19;6.50;99.90
71142;DHT22;58808;59.366;17.970;2023-10-31T13:39:46;6.50;99.90
71142;DHT22;58808;59.366;17.970;2023-10-31T13:42:12;6.50;99.90
71142;DHT22;58808;59.366;17.970;2023-10-31T13:44:40;6.50;99.90
71142;DHT22;58808;59.366;17.970;2023-10-31T13:47:06;6.50;99.90
71142;DHT22;58808;59.366;17.970;2023-10-31T13:49:32;6.50;99.90
71142;DHT22;58808;59.366;17.970;2023-10-31T13:51:58;6.40;99.90
71142;DHT22;58808;59.366;17.970;2023-10-31T13:54:23;6.40;99.90
71142;DHT22;58808;59.366;17.970;2023-10-31T13:56:49;6.40;99.90
71142;DHT22;58808;59.366;17.970;2023-10-31T13:59:15;6.40;99.90
71142;DHT22;58808;59.366;17.970;2023-10-31T14:01:41;6.40;99.90
71142;DHT22;58808;59.366;17.970;2023-10-31T14:04:09;6.40;99.90
71142;DHT22;58808;59.366;17.970;2023-10-31T14:06:35;6.30;99.90
71142;DHT22;58808;59.366;17.970;2023-10-31T14:09:01;6.40;99.90
71142;DHT22;58808;59.366;17.970;2023-10-31T14:11:30;6.30;99.90
71142;DHT22;58808;59.366;17.970;2023-10-31T14:13:56;6.30;99.90
71142;DHT22;58808;59.366;17.970;2023-10-31T14:16:25;6.30;99.90
71142;DHT22;58808;59.366;17.970;2023-10-31T14:18:51;6.20;99.90
71142;DHT22;58808;59.366;17.970;2023-10-31T14:21:16;6.10;99.90
71142;DHT22;58808;59.366;17.970;2023-10-31T14:23:42;6.10;99.90
71142;DHT22;58808;59.366;17.970;2023-10-31T14:26:08;6.10;99.90
71142;DHT22;58808;59.366;17.970;2023-10-31T14:28:33;6.10;99.90
71142;DHT22;58808;59.366;17.970;2023-10-31T14:31:00;6.10;99.90
71142;DHT22;58808;59.366;17.970;2023-10-31T14:33:25;6.10;99.90
71142;DHT22;58808;59.366;17.970;2023-10-31T14:35:51;6.10;99.90
71142;DHT22;58808;59.366;17.970;2023-10-31T14:38:16;6.10;99.90
71142;DHT22;58808;59.366;17.970;2023-10-31T14:40:42;6.10;99.90
71142;DHT22;58808;59.366;17.970;2023-10-31T14:43:08;6.00;99.90
71142;DHT22;58808;59.366;17.970;2023-10-31T14:45:33;6.10;99.90
71142;DHT22;58808;59.366;17.970;2023-10-31T14:47:59;6.00;99.90
71142;DHT22;58808;59.366;17.970;2023-10-31T14:50:25;6.00;99.90
71142;DHT22;58808;59.366;17.970;2023-10-31T14:52:51;5.90;99.90
71142;DHT22;58808;59.366;17.970;2023-10-31T14:55:16;5.90;99.90
71142;DHT22;58808;59.366;17.970;2023-10-31T14:57:42;5.90;99.90
71142;DHT22;58808;59.366;17.970;2023-10-31T15:00:08;5.90;99.90
71142;DHT22;58808;59.366;17.970;2023-10-31T15:02:35;5.90;99.90
71142;DHT22;58808;59.366;17.970;2023-10-31T15:05:01;5.90;99.90
71142;DHT22;58808;59.366;17.970;2023-10-31T15:07:29;5.90;99.90
71142;DHT22;58808;59.366;17.970;2023-10-31T15:09:55;5.90;99.90
71142;DHT22;58808;59.366;17.970;2023-10-31T15:12:20;5.80;99.90
71142;DHT22;58808;59.366;17.970;2023-10-31T15:14:46;5.80;99.90
71142;DHT22;58808;59.366;17.970;2023-10-31T15:17:12;5.80;99.90
71142;DHT22;58808;59.366;17.970;2023-10-31T15:19:38;5.80;99.90
71142;DHT22;58808;59.366;17.970;2023-10-31T15:22:03;5.80;99.90
71142;DHT22;58808;59.366;17.970;2023-10-31T15:24:29;5.80;99.90
71142;DHT22;58808;59.366;17.970;2023-10-31T15:26:56;5.80;99.90
71142;DHT22;58808;59.366;17.970;2023-10-31T15:29:22;5.80;99.90
71142;DHT22;58808;59.366;17.970;2023-10-31T15:31:48;5.70;99.90